createdAt,value
2023-03-15T00:00:26.017Z,0.50
2023-03-15T00:02:53.167Z,0.60
2023-03-15T00:05:21.693Z,0.50
2023-03-15T00:07:48.862Z,0.50
2023-03-15T00:10:16.278Z,0.40
2023-03-15T00:12:43.418Z,0.67
2023-03-15T00:15:14.323Z,0.50
2023-03-15T00:17:41.772Z,0.47
2023-03-15T00:20:10.778Z,0.50
2023-03-15T00:22:38.277Z,0.40
2023-03-15T00:25:05.829Z,0.53
2023-03-15T00:27:33.026Z,0.53
2023-03-15T00:30:00.305Z,0.40
2023-03-15T00:32:27.548Z,0.40
2023-03-15T00:34:54.797Z,0.40
2023-03-15T00:37:22.242Z,0.43
2023-03-15T00:39:49.416Z,0.50
2023-03-15T00:42:16.616Z,0.60
2023-03-15T00:44:45.109Z,0.40
2023-03-15T00:47:13.493Z,0.40
2023-03-15T00:49:41.462Z,0.40
2023-03-15T00:52:08.889Z,0.60
2023-03-15T00:54:36.013Z,0.70
2023-03-15T00:57:03.838Z,0.50
2023-03-15T00:59:35.629Z,0.40
2023-03-15T01:02:04.215Z,0.60
2023-03-15T01:04:32.063Z,0.50
2023-03-15T01:06:59.548Z,0.57
2023-03-15T01:09:26.709Z,0.50
2023-03-15T01:11:53.872Z,0.60
2023-03-15T01:14:21.020Z,0.50
2023-03-15T01:16:48.234Z,0.50
2023-03-15T01:19:15.658Z,0.60
2023-03-15T01:21:44.134Z,0.50
2023-03-15T01:24:14.264Z,0.50
2023-03-15T01:26:41.825Z,0.50
2023-03-15T01:29:08.929Z,0.40
2023-03-15T01:31:36.296Z,0.47
2023-03-15T01:34:03.547Z,0.50
2023-03-15T01:36:30.768Z,0.50
2023-03-15T01:38:58.142Z,0.50
2023-03-15T01:41:25.963Z,0.50
2023-03-15T05:12:36.873Z,0.60
2023-03-15T05:18:11.841Z,0.60
2023-03-15T05:20:38.906Z,0.70
2023-03-15T05:23:06.121Z,0.50
2023-03-15T05:25:33.999Z,0.47
2023-03-15T05:28:04.571Z,0.53
2023-03-15T05:30:32.126Z,0.60
2023-03-15T05:32:59.363Z,0.53
2023-03-15T05:35:28.433Z,0.60
2023-03-15T05:37:56.026Z,0.53
2023-03-15T05:40:23.138Z,0.50
2023-03-15T05:42:50.192Z,0.43
2023-03-15T05:45:17.249Z,0.40
2023-03-15T05:47:44.427Z,0.60
2023-03-15T05:50:11.746Z,0.43
2023-03-15T05:52:38.832Z,0.50
2023-03-15T05:55:06.213Z,0.60
2023-03-15T05:57:33.318Z,0.50
2023-03-15T06:00:00.515Z,0.50
2023-03-15T06:02:27.627Z,0.50
2023-03-15T06:04:54.757Z,0.40
2023-03-15T06:07:21.917Z,0.50
2023-03-15T06:09:49.063Z,0.40
2023-03-15T06:12:16.254Z,0.60
2023-03-15T06:14:43.402Z,0.50
2023-03-15T06:17:10.579Z,0.40
2023-03-15T06:19:38.041Z,0.50
2023-03-15T06:22:05.325Z,0.50
2023-03-15T06:24:32.486Z,0.50
2023-03-15T06:27:00.539Z,0.40
2023-03-15T06:29:27.899Z,0.40
2023-03-15T06:31:55.171Z,0.40
2023-03-15T06:34:22.380Z,0.60
2023-03-15T06:36:49.815Z,0.40
2023-03-15T06:39:16.976Z,0.40
2023-03-15T06:41:44.278Z,0.40
2023-03-15T06:44:11.761Z,0.40
2023-03-15T06:46:39.803Z,0.40
2023-03-15T06:49:07.172Z,0.40
2023-03-15T06:51:34.429Z,0.50
2023-03-15T06:54:01.593Z,0.50
2023-03-15T06:56:29.010Z,0.50
2023-03-15T06:58:56.081Z,0.50
2023-03-15T07:01:23.257Z,1.47
2023-03-15T07:03:50.438Z,0.60
2023-03-15T07:06:17.826Z,0.93
2023-03-15T07:08:45.348Z,0.40
2023-03-15T07:11:13.482Z,0.60
2023-03-15T07:13:40.765Z,0.80
2023-03-15T07:16:07.896Z,0.40
2023-03-15T07:18:35.065Z,0.40
2023-03-15T07:21:03.999Z,0.50
2023-03-15T07:23:31.410Z,0.30
2023-03-15T07:25:58.581Z,0.40
2023-03-15T07:28:26.828Z,0.40
2023-03-15T07:30:57.852Z,0.50
2023-03-15T07:33:26.452Z,0.60
2023-03-15T07:35:54.001Z,0.80
2023-03-15T07:38:23.492Z,0.50
2023-03-15T07:40:50.895Z,0.43
2023-03-15T07:43:18.369Z,0.50
2023-03-15T07:45:45.463Z,0.40
2023-03-15T07:48:12.935Z,0.50
2023-03-15T07:50:40.415Z,0.40
2023-03-15T07:53:08.037Z,0.40
2023-03-15T07:55:35.855Z,0.30
2023-03-15T07:58:03.690Z,0.40
2023-03-15T08:00:30.935Z,0.40
2023-03-15T08:02:59.006Z,0.40
2023-03-15T08:05:28.928Z,0.40
2023-03-15T08:07:56.764Z,0.30
2023-03-15T08:10:24.132Z,0.40
2023-03-15T08:12:51.236Z,0.40
2023-03-15T08:15:19.577Z,0.40
2023-03-15T08:17:49.745Z,0.40
2023-03-15T08:20:20.270Z,0.30
2023-03-15T08:22:48.706Z,0.40
2023-03-15T08:25:18.918Z,0.40
2023-03-15T08:27:46.591Z,0.40
2023-03-15T08:30:15.601Z,0.40
2023-03-15T08:32:45.289Z,0.43
2023-03-15T08:35:15.756Z,0.40
2023-03-15T08:37:47.874Z,0.50
2023-03-15T08:40:25.896Z,0.40
2023-03-15T08:42:54.094Z,0.40
2023-03-15T08:45:23.991Z,0.40
2023-03-15T08:47:58.845Z,0.40
2023-03-15T08:50:27.445Z,0.40
2023-03-15T08:52:54.808Z,0.40
2023-03-15T08:55:21.946Z,0.40
2023-03-15T08:57:49.342Z,0.40
2023-03-15T09:00:20.661Z,0.40
2023-03-15T09:02:49.135Z,0.40
2023-03-15T09:05:17.044Z,0.40
2023-03-15T09:07:45.505Z,0.40
2023-03-15T09:10:15.165Z,0.40
2023-03-15T09:12:48.640Z,0.40
2023-03-15T09:15:15.831Z,0.40
2023-03-15T09:17:43.344Z,0.40
2023-03-15T09:20:16.882Z,0.40
2023-03-15T09:22:49.595Z,0.30
2023-03-15T09:25:16.804Z,0.40
2023-03-15T09:27:43.876Z,0.40
2023-03-15T09:30:11.918Z,0.40
2023-03-15T09:32:39.018Z,0.40
2023-03-15T09:35:10.121Z,0.70
2023-03-15T09:37:37.300Z,0.30
2023-03-15T09:40:05.791Z,0.70
2023-03-15T09:42:48.180Z,0.50
2023-03-15T09:45:36.163Z,0.40
2023-03-15T09:48:15.306Z,0.40
2023-03-15T09:51:00.958Z,0.40
2023-03-15T09:53:43.336Z,0.47
2023-03-15T09:56:39.394Z,0.50
2023-03-15T09:59:07.102Z,0.30
2023-03-15T10:01:40.474Z,0.30
2023-03-15T10:04:26.069Z,0.50
2023-03-15T10:07:02.913Z,0.60
2023-03-15T10:09:35.785Z,0.40
2023-03-15T10:12:16.662Z,0.57
2023-03-15T10:14:55.957Z,0.40
2023-03-15T10:17:31.885Z,0.40
2023-03-15T10:20:06.156Z,0.50
2023-03-15T10:22:39.030Z,0.40
2023-03-15T10:25:15.061Z,0.40
2023-03-15T10:28:01.070Z,0.37
2023-03-15T10:30:33.999Z,0.40
2023-03-15T10:33:24.948Z,0.33
2023-03-15T10:35:56.139Z,0.40
2023-03-15T10:38:26.691Z,0.30
2023-03-15T10:40:57.123Z,0.40
2023-03-15T10:43:30.086Z,0.40
2023-03-15T10:46:08.265Z,0.30
2023-03-15T10:48:40.431Z,0.40
2023-03-15T10:51:23.970Z,0.40
2023-03-15T10:54:06.260Z,0.40
2023-03-15T10:56:55.882Z,0.30
2023-03-15T10:59:25.692Z,0.30
2023-03-15T11:02:07.392Z,0.40
2023-03-15T11:04:34.613Z,0.33
2023-03-15T11:07:04.191Z,0.30
2023-03-15T11:09:43.349Z,0.40
2023-03-15T11:12:18.902Z,0.30
2023-03-15T11:14:49.093Z,0.40
2023-03-15T11:17:23.627Z,0.40
2023-03-15T11:20:26.056Z,0.40
2023-03-15T11:22:54.549Z,0.30
2023-03-15T11:25:26.021Z,0.40
2023-03-15T11:27:53.762Z,0.40
2023-03-15T11:30:28.621Z,0.40
2023-03-15T11:32:58.432Z,0.40
2023-03-15T11:35:36.563Z,0.40
2023-03-15T11:38:15.307Z,0.30
2023-03-15T11:40:48.164Z,0.57
2023-03-15T11:43:25.773Z,0.40
2023-03-15T11:46:04.870Z,0.40
2023-03-15T11:48:41.680Z,0.40
2023-03-15T11:51:11.819Z,0.40
2023-03-15T11:53:46.293Z,0.40
2023-03-15T11:56:56.238Z,0.40
2023-03-15T11:59:40.174Z,0.43
2023-03-15T12:02:10.740Z,0.40
2023-03-15T12:04:44.538Z,0.50
2023-03-15T12:07:17.718Z,0.43
2023-03-15T12:09:52.303Z,0.40
2023-03-15T12:12:25.614Z,0.60
2023-03-15T12:15:14.170Z,0.40
2023-03-15T12:17:50.754Z,0.40
2023-03-15T12:20:40.975Z,0.50
2023-03-15T12:23:20.268Z,0.50
2023-03-15T12:25:58.404Z,0.70
2023-03-15T12:29:00.686Z,0.50
2023-03-15T12:32:01.582Z,0.50
2023-03-15T12:34:52.849Z,0.63
2023-03-15T12:37:44.659Z,0.60
2023-03-15T12:40:22.429Z,0.50
2023-03-15T12:42:49.556Z,0.60
2023-03-15T12:45:16.875Z,0.63
2023-03-15T12:47:50.832Z,0.70
2023-03-15T12:50:36.587Z,0.43
2023-03-15T12:53:13.058Z,0.57
2023-03-15T12:55:40.732Z,0.50
2023-03-15T12:58:13.022Z,0.70
2023-03-15T13:00:43.538Z,0.50
2023-03-15T13:03:16.620Z,0.53
2023-03-15T13:06:04.227Z,0.60
2023-03-15T13:08:53.256Z,0.50
2023-03-15T13:11:26.187Z,0.60
2023-03-15T13:14:21.394Z,0.50
2023-03-15T13:17:03.899Z,0.40
2023-03-15T13:19:44.754Z,0.60
2023-03-15T13:22:31.823Z,0.50
2023-03-15T13:25:39.856Z,0.50
2023-03-15T13:28:37.304Z,0.50
2023-03-15T13:31:14.288Z,0.50
2023-03-15T13:33:41.726Z,0.40
2023-03-15T13:36:23.652Z,0.50
2023-03-15T13:38:53.869Z,0.50
2023-03-15T13:41:29.587Z,0.50
2023-03-15T13:44:02.443Z,0.57
2023-03-15T13:46:31.508Z,0.67
2023-03-15T13:49:01.110Z,0.40
2023-03-15T13:51:31.887Z,0.40
2023-03-15T13:54:23.634Z,0.50
2023-03-15T13:57:01.757Z,0.57
2023-03-15T14:00:10.547Z,0.63
2023-03-15T14:02:47.439Z,0.43
2023-03-15T14:05:27.332Z,0.70
2023-03-15T14:08:02.824Z,0.60
2023-03-15T14:10:37.149Z,0.50
2023-03-15T14:13:32.165Z,0.80
2023-03-15T14:16:08.333Z,0.60
2023-03-15T14:18:38.026Z,0.50
2023-03-15T14:21:16.414Z,0.50
2023-03-15T14:23:45.965Z,0.53
2023-03-15T14:26:21.613Z,0.50
2023-03-15T14:28:54.881Z,0.57
2023-03-15T14:31:30.312Z,0.57
2023-03-15T14:34:19.077Z,0.50
2023-03-15T14:36:47.662Z,0.40
2023-03-15T14:39:39.737Z,0.50
2023-03-15T14:42:10.912Z,0.50
2023-03-15T14:44:38.229Z,0.50
2023-03-15T14:47:16.886Z,0.50
2023-03-15T14:49:44.079Z,0.60
2023-03-15T14:52:14.812Z,0.40
2023-03-15T14:54:48.256Z,0.60
2023-03-15T14:57:17.798Z,0.50
2023-03-15T14:59:44.918Z,0.70
2023-03-15T15:02:18.713Z,0.70
2023-03-15T15:04:48.232Z,0.87
2023-03-15T15:07:17.595Z,0.50
2023-03-15T15:09:48.816Z,0.43
2023-03-15T15:12:16.157Z,0.70
2023-03-15T15:14:43.244Z,0.63
2023-03-15T15:17:11.318Z,0.73
2023-03-15T15:19:38.426Z,0.53
2023-03-15T15:22:05.607Z,0.50
2023-03-15T15:24:32.750Z,0.50
2023-03-15T15:26:59.947Z,0.70
2023-03-15T15:29:27.106Z,0.80
2023-03-15T15:31:54.258Z,0.60
2023-03-15T15:34:21.422Z,0.60
2023-03-15T15:36:48.571Z,0.80
2023-03-15T15:39:26.138Z,0.60
2023-03-15T15:41:53.765Z,0.70
2023-03-15T15:44:22.378Z,0.70
2023-03-15T15:46:49.812Z,0.60
2023-03-15T15:49:16.932Z,0.50
2023-03-15T15:51:46.132Z,0.50
2023-03-15T15:54:19.548Z,0.70
2023-03-15T15:56:52.155Z,0.63
2023-03-15T15:59:19.710Z,0.60
2023-03-15T16:02:00.498Z,0.70
2023-03-15T16:04:29.008Z,0.67
2023-03-15T16:07:02.118Z,0.50
2023-03-15T16:09:31.455Z,0.70
2023-03-15T16:11:59.075Z,0.63
2023-03-15T16:14:26.242Z,0.80
2023-03-15T16:16:53.312Z,0.80
2023-03-15T16:19:20.494Z,0.80
2023-03-15T16:21:50.775Z,0.80
2023-03-15T16:24:22.599Z,0.70
2023-03-15T16:26:50.598Z,0.50
2023-03-15T16:29:19.370Z,0.70
2023-03-15T16:31:47.393Z,0.60
2023-03-15T16:34:16.654Z,0.50
2023-03-15T16:36:49.206Z,0.70
2023-03-15T16:39:17.388Z,0.80
2023-03-15T16:41:44.549Z,0.70
2023-03-15T16:44:15.134Z,2.40
2023-03-15T16:46:42.699Z,0.70
2023-03-15T16:49:10.424Z,0.80
2023-03-15T16:52:04.735Z,0.70
2023-03-15T16:54:41.336Z,0.70
2023-03-15T16:57:16.584Z,0.83
2023-03-15T16:59:43.922Z,0.70
2023-03-15T17:02:29.135Z,0.83
2023-03-15T17:04:56.254Z,0.70
2023-03-15T17:07:31.414Z,0.70
2023-03-15T17:10:00.356Z,0.83
2023-03-15T17:12:29.137Z,1.00
2023-03-15T17:14:59.094Z,1.17
2023-03-15T17:17:28.197Z,1.70
2023-03-15T17:19:55.479Z,1.00
2023-03-15T17:22:22.861Z,0.90
2023-03-15T17:24:50.286Z,1.43
2023-03-15T17:27:26.193Z,1.10
2023-03-15T17:29:53.294Z,0.90
2023-03-15T17:32:20.630Z,3.10
2023-03-15T17:34:47.837Z,1.97
2023-03-15T17:37:16.681Z,1.77
2023-03-15T17:39:45.102Z,2.17
2023-03-15T17:42:15.610Z,0.70
2023-03-15T17:44:42.739Z,0.70
2023-03-15T17:47:11.989Z,0.90
2023-03-15T17:49:39.617Z,1.03
2023-03-15T17:52:15.454Z,0.80
2023-03-15T17:54:42.733Z,1.60
2023-03-15T17:57:12.806Z,0.90
2023-03-15T17:59:39.922Z,0.70
2023-03-15T18:02:17.213Z,0.60
2023-03-15T18:04:44.331Z,1.00
2023-03-15T18:07:11.505Z,0.77
2023-03-15T18:09:38.646Z,0.90
2023-03-15T18:12:06.026Z,0.80
2023-03-15T18:14:37.145Z,1.10
2023-03-15T18:17:04.425Z,1.17
2023-03-15T18:19:31.762Z,0.80
2023-03-15T18:21:58.866Z,0.90
2023-03-15T18:24:26.021Z,1.10
2023-03-15T18:26:53.242Z,1.30
2023-03-15T18:29:20.765Z,1.70
2023-03-15T18:31:48.006Z,2.10
2023-03-15T18:34:17.159Z,1.50
2023-03-15T18:36:44.316Z,1.60
2023-03-15T18:39:11.492Z,3.27
2023-03-15T18:41:38.673Z,3.20
2023-03-15T18:44:05.945Z,3.40
2023-03-15T18:46:33.127Z,1.67
2023-03-15T18:49:00.343Z,1.30
2023-03-15T18:51:28.304Z,1.30
2023-03-15T18:53:56.425Z,1.20
2023-03-15T18:56:30.920Z,1.47
2023-03-15T18:59:10.409Z,1.10
2023-03-15T19:01:43.389Z,1.00
2023-03-15T19:04:11.292Z,1.23
2023-03-15T19:06:39.376Z,1.40
2023-03-15T19:09:09.891Z,1.20
2023-03-15T19:11:42.062Z,1.10
2023-03-15T19:14:10.624Z,0.77
2023-03-15T19:16:37.943Z,1.10
2023-03-15T19:19:05.364Z,0.70
2023-03-15T19:21:32.608Z,0.70
2023-03-15T19:23:59.782Z,0.70
2023-03-15T19:26:26.899Z,0.60
2023-03-15T19:28:54.226Z,0.70
2023-03-15T19:31:21.785Z,0.90
2023-03-15T19:33:49.284Z,1.17
2023-03-15T19:36:17.129Z,0.83
2023-03-15T19:38:45.745Z,1.00
2023-03-15T19:41:13.298Z,1.00
2023-03-15T19:43:43.415Z,1.07
2023-03-15T19:46:13.643Z,2.47
2023-03-15T19:48:41.420Z,2.60
2023-03-15T19:54:37.106Z,1.33
2023-03-15T20:01:57.379Z,2.20
2023-03-15T20:09:12.080Z,1.10
2023-03-15T20:11:59.434Z,1.33
2023-03-15T20:15:00.051Z,1.57
2023-03-15T20:17:39.899Z,1.10
2023-03-15T20:20:11.418Z,1.00
2023-03-15T20:22:41.506Z,1.10
2023-03-15T20:25:11.089Z,0.97
2023-03-15T20:27:38.681Z,1.43
2023-03-15T20:30:07.752Z,1.20
2023-03-15T20:32:35.198Z,1.10
2023-03-15T20:35:06.441Z,0.93
2023-03-15T20:37:34.946Z,1.43
2023-03-15T20:40:08.617Z,0.87
2023-03-15T20:42:36.430Z,0.70
2023-03-15T20:45:04.585Z,0.60
2023-03-15T20:47:31.667Z,1.00
2023-03-15T20:50:00.237Z,0.80
2023-03-15T20:52:27.935Z,1.10
2023-03-15T20:54:55.158Z,0.73
2023-03-15T20:57:22.316Z,0.90
2023-03-15T20:59:49.536Z,1.00
2023-03-15T21:02:17.114Z,1.03
2023-03-15T21:04:44.635Z,2.10
2023-03-15T21:07:12.106Z,1.60
2023-03-15T21:09:40.473Z,2.07
2023-03-15T21:12:08.228Z,1.70
2023-03-15T21:14:35.694Z,2.07
2023-03-15T21:17:02.907Z,1.00
2023-03-15T21:19:30.094Z,0.73
2023-03-15T21:21:58.973Z,0.70
2023-03-15T21:24:31.142Z,0.70
2023-03-15T21:26:58.577Z,0.90
2023-03-15T21:29:25.681Z,0.83
2023-03-15T21:31:52.849Z,0.80
2023-03-15T21:34:19.968Z,0.80
2023-03-15T21:36:47.319Z,0.93
2023-03-15T21:39:14.460Z,0.80
2023-03-15T21:41:41.573Z,0.97
2023-03-15T21:44:08.775Z,0.67
2023-03-15T21:46:36.464Z,0.70
2023-03-15T21:49:04.222Z,0.93
2023-03-15T21:51:34.096Z,0.90
2023-03-15T21:54:01.687Z,0.80
2023-03-15T21:56:29.074Z,0.80
2023-03-15T21:58:56.192Z,1.10
2023-03-15T22:01:23.917Z,1.00
2023-03-15T22:03:54.993Z,0.80
2023-03-15T22:06:22.772Z,1.00
2023-03-15T22:08:50.592Z,0.80
2023-03-15T22:11:17.689Z,0.67
2023-03-15T22:13:45.170Z,0.70
2023-03-15T22:16:12.561Z,2.20
2023-03-15T22:18:39.941Z,1.20
2023-03-15T22:21:07.695Z,1.43
2023-03-15T22:23:34.844Z,1.30
2023-03-15T22:26:02.068Z,1.50
2023-03-15T22:28:30.919Z,1.37
2023-03-15T22:30:58.082Z,1.27
2023-03-15T22:33:25.416Z,1.40
2023-03-15T22:35:57.703Z,1.43
2023-03-15T22:38:25.821Z,1.43
2023-03-15T22:41:01.288Z,1.43
2023-03-15T22:43:28.557Z,1.00
2023-03-15T22:45:55.735Z,1.40
2023-03-15T22:48:23.268Z,1.67
2023-03-15T22:51:05.587Z,1.40
2023-03-15T22:53:33.811Z,1.87
2023-03-15T22:56:01.348Z,1.10
2023-03-15T22:58:28.438Z,1.63
2023-03-15T23:00:55.521Z,1.77
2023-03-15T23:03:22.922Z,1.53
2023-03-15T23:05:50.001Z,1.70
2023-03-15T23:08:17.159Z,1.37
2023-03-15T23:10:44.458Z,1.50
2023-03-15T23:13:11.915Z,2.30
2023-03-15T23:15:39.199Z,2.30
2023-03-15T23:18:06.794Z,2.20
2023-03-15T23:20:34.422Z,1.53
2023-03-15T23:23:01.539Z,1.93
2023-03-15T23:25:28.923Z,1.93
2023-03-15T23:27:56.958Z,1.30
2023-03-15T23:30:25.243Z,1.53
2023-03-15T23:32:57.473Z,1.10
2023-03-15T23:35:25.914Z,1.70
2023-03-15T23:37:53.711Z,1.77
2023-03-15T23:40:21.309Z,2.03
2023-03-15T23:42:52.476Z,2.00
2023-03-15T23:45:19.682Z,1.40
2023-03-15T23:47:46.860Z,1.60
2023-03-15T23:50:14.043Z,1.20
2023-03-15T23:52:41.379Z,1.70
2023-03-15T23:55:09.428Z,1.33
2023-03-15T23:57:36.617Z,1.20
